Decoded Metar for PATK (TALKEETNA in AK, USA) (IATA:TKA) | Meteo·Mobile Aviation Weather
aviador You're here:

PATK Decoded Metar

TALKEETNA in AK, USA
Report Time2019-02-22 13:53:00
UTC Time2019-02-22 14:48:13
Flight Rules vfr VFR
WindCalm
Visibility9999 m
Phenomena:N/A
Clouds:N/A
Expected CloudBase > 1,200 ft AGL from Temp-Dew spread
CeilingNone
Temp-21°C (ISA -35)
Dew Point-24°C (77% RH)
AAT-24.7°C
QNH1022 hPa
Density Alt-4,469 ft
Elevation358 ft
Report Wrong Elevation
Raw Report
PATK 221353Z AUTO 00000KT 10SM CLR M21/M24 A3018 RMK AO2 SLP230
T12111244 TSNO=

Extra information for PATK:More info

Metar Taf Metar & Taf Last 4 Metars F.Rules Stats Wind Profile Meteogram Temp Stats Airport Information Weather charts Add Link Nearby VenuesMetar ALERT Operation Metar Decoded Social comments

AIRNAV info for PATK